Time;durP1;ratioP1;P1;durP2;ratioP2;P2;SDS_P1;SDS_P2;PMS_P1;PMS_P2;Temp;Humidity;BMP_temperature;BMP_pressure;BME280_temperature;BME280_humidity;BME280_pressure;Samples;Min_cycle;Max_cycle;Signal;HPM_P1;HPM_P2
2022/08/03 14:37:54;;;;;;;15.30;3.83;;;;;;;32.32;46.56;100069.34;5063230;28;20384;-73
2022/08/03 14:40:20;;;;;;;;;;;;;;;32.93;47.52;100329.16;5007400;28;20046;-74
2022/08/03 14:42:45;;;;;;;11.55;3.78;;;;;;;32.61;45.90;100043.03;5065349;28;19958;-76
2022/08/03 14:45:12;;;;;;;;;;;;;;;31.87;47.51;100008.91;5073338;28;20045;-75
2022/08/03 14:47:37;;;;;;;11.45;3.35;;;;;;;32.19;48.06;100166.97;5063481;28;19916;-76
2022/08/03 14:50:04;;;;;;;;;;;;;;;32.27;48.74;100223.38;5049580;28;20070;-75
2022/08/03 14:52:30;;;;;;;10.20;2.58;;;;;;;32.93;46.50;100215.81;5039341;28;19955;-76
2022/08/03 14:54:56;;;;;;;7.22;3.03;;;;;;;32.80;46.54;100165.09;5058326;28;20068;-75
2022/08/03 14:57:21;;;;;;;;;;;;;;;32.87;46.97;100221.84;5057111;28;20573;-76
2022/08/03 14:59:47;;;;;;;10.68;2.88;;;;;;;32.90;46.82;100196.31;5044529;28;19920;-76
2022/08/03 15:02:12;;;;;;;;;;;;;;;32.29;47.45;100083.00;5070886;28;20042;-75
2022/08/03 15:04:38;;;;;;;11.50;2.75;;;;;;;31.49;48.34;99953.47;5064039;28;20031;-76
2022/08/03 15:07:03;;;;;;;;;;;;;;;31.72;50.22;100216.28;5026566;28;20121;-76
2022/08/03 15:09:29;;;;;;;;;;;;;;;32.14;48.69;100200.25;5041925;28;19919;-76
2022/08/03 15:11:54;;;;;;;6.20;2.28;;;;;;;31.61;47.77;99944.56;5045617;28;19930;-76
2022/08/03 15:14:20;;;;;;;;;;;;;;;31.86;48.22;100079.00;5032035;28;20097;-76
2022/08/03 15:16:45;;;;;;;;;;;;;;;32.38;48.11;100203.41;5045840;28;19908;-76
2022/08/03 15:19:10;;;;;;;8.43;2.03;;;;;;;32.36;47.01;100088.88;5052850;28;19924;-76
2022/08/03 15:21:35;;;;;;;;;;;;;;;32.91;48.89;100408.84;5019070;28;20205;-76
2022/08/03 15:24:01;;;;;;;;;;;;;;;32.73;46.52;100112.28;5023476;28;20032;-76
2022/08/03 15:26:26;;;;;;;12.00;2.93;;;;;;;32.70;46.83;100132.25;5041830;28;20289;-76
2022/08/03 15:28:51;;;;;;;;;;;;;;;31.94;49.67;100160.22;5034770;28;20094;-76
2022/08/03 15:31:21;;;;;;;;;;;;;;;31.38;50.45;100081.78;5054130;28;19917;-75
2022/08/03 15:33:46;;;;;;;6.15;2.92;;;;;;;31.59;48.30;99997.34;5061891;28;20826;-76
2022/08/03 15:36:12;;;;;;;;;;;;;;;31.10;49.46;99953.22;5031215;28;20030;-76
2022/08/03 15:38:37;;;;;;;;;;;;;;;31.22;50.94;100108.94;5063824;28;19931;-76
2022/08/03 15:41:02;;;;;;;8.70;2.27;;;;;;;31.11;53.03;100262.75;4999362;22;19949;-87
2022/08/03 15:43:28;;;;;;;;;;;;;;;30.38;56.37;100314.19;4990175;22;20035;-76
2022/08/03 15:45:53;;;;;;;8.60;2.23;;;;;;;31.04;54.73;100387.22;4982777;28;20105;-76
2022/08/03 15:48:19;;;;;;;;;;;;;;;31.43;53.43;100336.22;4975877;28;20281;-76
2022/08/03 15:50:44;;;;;;;10.60;1.70;;;;;;;30.93;52.85;100209.44;4967032;28;20294;-76
2022/08/03 15:53:10;;;;;;;;;;;;;;;31.42;54.64;100424.75;4966383;28;20043;-76
2022/08/03 15:55:35;;;;;;;;;;;;;;;31.42;54.19;100406.31;4964990;28;19914;-76
2022/08/03 15:58:00;;;;;;;7.43;2.27;;;;;;;31.56;53.47;100356.56;4965974;28;19921;-76
2022/08/03 16:00:26;;;;;;;;;;;;;;;31.72;52.93;100384.63;4964473;28;20023;-76
2022/08/03 16:02:51;;;;;;;;;;;;;;;31.98;52.00;100365.50;4959290;28;20099;-76
2022/08/03 16:05:16;;;;;;;4.87;1.70;;;;;;;31.82;50.26;100216.03;4966001;28;20378;-76
2022/08/03 16:07:42;;;;;;;;;;;;;;;31.16;52.20;100190.94;4965877;28;20435;-76
2022/08/03 16:10:09;;;;;;;11.33;1.93;;;;;;;30.94;52.71;100186.25;4957988;28;19914;-76
2022/08/03 16:12:35;;;;;;;6.72;2.42;;;;;;;30.68;54.21;100194.28;4965765;28;20418;-76
2022/08/03 16:15:01;;;;;;;8.80;2.83;;;;;;;30.36;56.63;100292.47;4965700;28;20414;-76
2022/08/03 16:17:26;;;;;;;;;;;;;;;30.36;58.62;100390.78;4981040;28;20027;-76
2022/08/03 16:19:52;;;;;;;6.13;2.08;;;;;;;30.20;56.03;100212.06;4965275;28;20374;-76
2022/08/03 16:22:17;;;;;;;;;;;;;;;30.17;58.36;100350.34;4965834;28;20046;-76
2022/08/03 16:24:42;;;;;;;8.23;1.85;;;;;;;29.94;59.09;100351.31;4965631;28;19910;-76
2022/08/03 16:27:08;;;;;;;;;;;;;;;29.81;61.00;100399.69;4948715;28;20056;-76
2022/08/03 16:29:33;;;;;;;;;;;;;;;29.49;60.61;100301.44;4965415;28;20051;-76
2022/08/03 16:32:05;;;;;;;5.17;1.60;;;;;;;29.38;61.53;100340.06;4965279;28;20381;-76
2022/08/03 16:34:31;;;;;;;7.20;2.25;;;;;;;29.30;60.40;100260.22;4976925;28;20035;-76
2022/08/03 16:36:57;;;;;;;;;;;;;;;29.32;64.30;100451.25;4950632;28;20034;-76
2022/08/03 16:39:22;;;;;;;6.72;2.10;;;;;;;29.43;63.86;100451.91;4974943;28;19914;-76
2022/08/03 16:41:47;;;;;;;10.63;1.60;;;;;;;29.22;62.11;100346.91;4963945;28;20039;-76
2022/08/03 16:44:13;;;;;;;8.35;2.00;;;;;;;29.28;65.02;100455.69;4963859;28;20031;-76
2022/08/03 16:46:41;;;;;;;7.47;1.73;;;;;;;29.28;68.00;100570.34;4960770;28;20387;-76
2022/08/03 16:49:07;;;;;;;6.30;1.95;;;;;;;29.40;69.52;100622.97;4963623;28;20045;-76
2022/08/03 16:51:33;;;;;;;;;;;;;;;29.30;71.56;100654.16;4964453;28;20046;-76
2022/08/03 16:53:58;;;;;;;7.50;1.92;;;;;;;29.22;67.74;100520.06;4981469;28;20373;-76
2022/08/03 16:56:23;;;;;;;;;;;;;;;29.28;69.04;100576.66;4966846;28;20049;-75
2022/08/03 16:58:49;;;;;;;14.07;2.33;;;;;;;29.20;71.81;100632.28;4964603;28;19949;-76
2022/08/03 17:01:14;;;;;;;6.63;3.03;;;;;;;29.25;72.00;100649.53;4962992;28;20026;-75
2022/08/03 17:03:39;;;;;;;5.03;1.65;;;;;;;29.17;69.44;100561.38;4964850;28;20042;-75
2022/08/03 17:06:05;;;;;;;;;;;;;;;29.23;71.33;100607.75;4958225;28;20023;-76
2022/08/03 17:08:31;;;;;;;7.40;1.65;;;;;;;29.09;74.91;100670.03;4951084;28;20393;-75
2022/08/03 17:10:56;;;;;;;12.68;1.90;;;;;;;28.93;78.12;100709.69;4952704;28;20408;-74
2022/08/03 17:13:22;;;;;;;7.13;2.63;;;;;;;28.91;77.47;100688.00;4964278;28;20038;-76
2022/08/03 17:15:49;;;;;;;7.05;2.35;;;;;;;28.84;81.41;100750.69;4962928;28;20395;-75
2022/08/03 17:18:17;;;;;;;9.20;1.85;;;;;;;28.72;73.38;100552.44;4960965;28;20058;-76
2022/08/03 17:20:45;;;;;;;9.52;2.33;;;;;;;28.73;79.32;100697.75;4951233;28;20027;-75
2022/08/03 17:23:27;;;;;;;8.40;2.30;;;;;;;28.66;77.29;100625.84;4956132;28;20035;-75
2022/08/03 17:25:53;;;;;;;9.85;2.47;;;;;;;28.60;83.27;100756.88;4957510;28;20075;-75
2022/08/03 17:28:22;;;;;;;8.05;1.88;;;;;;;28.49;83.75;100736.06;4963982;28;20110;-75
2022/08/03 17:33:33;;;;;;;6.20;1.83;;;;;;;28.16;90.15;100782.28;4954660;28;20035;-75
2022/08/03 17:35:58;;;;;;;;;;;;;;;28.18;88.80;100762.81;4962236;28;20031;-76
2022/08/03 17:38:23;;;;;;;7.57;1.77;;;;;;;28.05;90.16;100757.91;4945127;28;20340;-76
2022/08/03 17:40:49;;;;;;;9.02;1.88;;;;;;;27.98;90.60;100755.47;4962494;28;20189;-76
2022/08/03 17:43:15;;;;;;;;;;;;;;;27.85;92.65;100770.56;4962794;28;20031;-76
2022/08/03 17:45:41;;;;;;;7.93;2.47;;;;;;;27.75;96.76;100806.22;4962894;28;19914;-75
2022/08/03 17:48:06;;;;;;;4.28;2.03;;;;;;;27.64;97.25;100788.94;4964251;28;20045;-75
2022/08/03 17:50:48;;;;;;;6.17;1.93;;;;;;;27.55;96.39;100771.41;4976716;28;20403;-75
2022/08/03 17:53:15;;;;;;;10.35;2.00;;;;;;;27.48;98.94;100812.81;4955988;28;20340;-75
2022/08/03 17:55:46;;;;;;;6.65;2.20;;;;;;;27.35;99.57;100795.00;4962034;28;20034;-77
2022/08/03 17:58:24;;;;;;;7.93;3.50;;;;;;;27.21;100.00;100821.28;4964615;28;20492;-76
2022/08/03 18:03:48;;;;;;;6.65;2.15;;;;;;;26.95;100.00;100814.91;4963940;28;20035;-75
2022/08/03 18:06:14;;;;;;;5.77;2.30;;;;;;;26.84;100.00;100863.34;4960564;28;20035;-75
2022/08/03 18:08:50;;;;;;;7.13;2.22;;;;;;;26.77;100.00;100871.00;4964599;28;20034;-76
2022/08/03 18:11:20;;;;;;;10.23;2.33;;;;;;;26.72;100.00;100862.78;4960476;28;20553;-74
2022/08/03 18:14:05;;;;;;;18.50;2.92;;;;;;;26.52;100.00;100853.31;4962488;28;20036;-75
2022/08/03 18:16:42;;;;;;;;;;;;;;;26.45;100.00;100915.69;4964353;28;20395;-76
2022/08/03 18:19:08;;;;;;;7.45;2.17;;;;;;;26.41;100.00;100887.22;4978243;28;20481;-77
2022/08/03 18:21:35;;;;;;;;;;;;;;;26.35;100.00;100851.88;4946315;28;20023;-76
2022/08/03 18:24:02;;;;;;;4.63;1.80;;;;;;;26.24;100.00;100856.47;4962862;28;19918;-76
2022/08/03 18:26:28;;;;;;;9.68;2.20;;;;;;;26.17;100.00;100916.88;4963773;28;20042;-77
2022/08/03 18:28:54;;;;;;;8.98;2.10;;;;;;;26.09;100.00;100911.91;4962351;28;20034;-76
2022/08/03 18:31:21;;;;;;;8.68;2.13;;;;;;;25.99;100.00;100923.59;4974543;28;20058;-75
2022/08/03 18:33:47;;;;;;;10.52;2.78;;;;;;;25.92;100.00;100939.41;4963462;28;20074;-75
2022/08/03 18:36:13;;;;;;;9.52;3.08;;;;;;;25.87;100.00;100936.59;5007274;28;20054;-75
2022/08/03 18:38:40;;;;;;;5.05;2.50;;;;;;;25.79;100.00;100932.41;4963561;28;20537;-75
2022/08/03 18:41:06;;;;;;;7.97;2.30;;;;;;;25.68;100.00;100947.06;4962835;28;20392;-74
2022/08/03 18:43:33;;;;;;;8.98;2.50;;;;;;;25.61;100.00;100963.66;4962944;28;20034;-74
2022/08/03 18:46:03;;;;;;;11.52;2.75;;;;;;;25.52;100.00;100950.72;4963306;28;20501;-76
2022/08/03 18:48:42;;;;;;;7.63;2.00;;;;;;;25.45;100.00;100945.44;4972098;28;20045;-76
2022/08/03 18:51:16;;;;;;;7.40;2.20;;;;;;;25.34;100.00;100946.44;4961559;28;20091;-74
2022/08/03 18:53:57;;;;;;;8.30;2.40;;;;;;;25.23;100.00;100949.03;4962006;28;20502;-74
2022/08/03 18:56:31;;;;;;;7.45;2.42;;;;;;;25.15;100.00;100962.31;4961001;28;20510;-74
2022/08/03 18:59:03;;;;;;;4.20;2.40;;;;;;;25.08;100.00;100970.69;4960498;28;20045;-74
2022/08/03 19:01:38;;;;;;;8.25;2.67;;;;;;;24.98;100.00;100974.13;4960208;28;20069;-75
2022/08/03 19:04:18;;;;;;;6.88;2.10;;;;;;;24.88;100.00;100984.06;4960812;28;20053;-74
2022/08/03 19:06:47;;;;;;;6.07;2.70;;;;;;;24.73;100.00;100985.50;4961357;28;20035;-74
2022/08/03 19:09:43;;;;;;;6.40;2.28;;;;;;;24.64;100.00;100981.56;4960307;28;20080;-75
2022/08/03 19:12:18;;;;;;;9.85;2.95;;;;;;;24.55;100.00;100992.06;4958801;28;20117;-76
2022/08/03 19:14:51;;;;;;;6.72;1.98;;;;;;;24.52;100.00;101006.22;4960150;28;20432;-76
2022/08/03 19:17:18;;;;;;;6.35;2.67;;;;;;;24.44;100.00;100999.25;4942337;28;20030;-75
2022/08/03 19:19:44;;;;;;;7.50;2.45;;;;;;;24.39;100.00;100993.69;4952163;28;20023;-76
2022/08/03 19:22:10;;;;;;;12.32;2.55;;;;;;;24.36;100.00;100983.28;4962230;28;20045;-76
2022/08/03 19:24:38;;;;;;;8.48;2.78;;;;;;;24.32;100.00;100997.66;4954208;28;20055;-75
2022/08/03 19:27:06;;;;;;;12.55;2.97;;;;;;;24.28;100.00;101002.81;4955588;28;20126;-75
2022/08/03 19:29:32;;;;;;;8.52;3.33;;;;;;;24.19;100.00;101012.47;4965351;28;20046;-74
2022/08/03 19:32:00;;;;;;;9.90;3.03;;;;;;;24.02;100.00;101023.34;4965417;28;20546;-76
2022/08/03 19:34:28;;;;;;;9.43;2.65;;;;;;;23.92;100.00;101029.44;4954495;28;20051;-74
2022/08/03 19:36:56;;;;;;;6.13;2.88;;;;;;;23.83;100.00;101038.25;4955290;28;20062;-76
2022/08/03 19:39:21;;;;;;;14.90;3.88;;;;;;;23.70;100.00;101036.63;4962805;28;20035;-76
2022/08/03 19:41:50;;;;;;;11.27;2.83;;;;;;;23.70;100.00;101023.00;4955232;28;20089;-74
2022/08/03 19:44:21;;;;;;;8.13;2.28;;;;;;;23.71;100.00;100981.03;4978926;28;20361;-74
2022/08/03 19:47:15;;;;;;;7.18;2.30;;;;;;;23.67;100.00;100975.25;4957466;28;20043;-74
2022/08/03 19:49:44;;;;;;;14.75;3.00;;;;;;;23.62;100.00;100977.84;4956275;28;20031;-76
2022/08/03 19:52:10;;;;;;;5.78;2.53;;;;;;;23.55;100.00;100988.09;4956549;28;20102;-75
2022/08/03 19:54:44;;;;;;;14.40;3.95;;;;;;;23.45;100.00;101001.53;4954038;28;20421;-74
2022/08/03 19:57:15;;;;;;;7.45;2.30;;;;;;;23.38;100.00;101028.88;4954943;28;20541;-74
2022/08/03 19:59:41;;;;;;;14.60;2.97;;;;;;;23.21;100.00;101041.63;4956913;28;20023;-74
2022/08/03 20:02:07;;;;;;;8.43;2.25;;;;;;;23.10;100.00;101056.88;4958572;28;20453;-74
2022/08/03 20:04:33;;;;;;;5.72;2.55;;;;;;;23.03;100.00;101061.63;4958475;28;20031;-75
2022/08/03 20:07:00;;;;;;;7.72;2.75;;;;;;;22.96;100.00;101053.53;4958409;28;20168;-74
2022/08/03 20:09:26;;;;;;;4.28;1.83;;;;;;;22.92;100.00;101046.91;4955014;28;20027;-75
2022/08/03 20:11:51;;;;;;;10.95;3.05;;;;;;;22.91;100.00;101029.75;4953341;28;20020;-75
2022/08/03 20:14:20;;;;;;;8.43;2.43;;;;;;;22.82;100.00;101023.00;4955110;28;20051;-74
2022/08/03 20:16:46;;;;;;;12.57;3.03;;;;;;;22.73;100.00;101038.03;4990172;28;20271;-75
2022/08/03 20:19:12;;;;;;;;;;;;;;;22.67;100.00;101044.44;4959227;28;20038;-74
2022/08/03 20:21:40;;;;;;;8.15;2.20;;;;;;;22.55;100.00;101049.88;4957386;28;19921;-75
2022/08/03 20:24:08;;;;;;;8.48;2.53;;;;;;;22.48;100.00;101051.88;4956916;28;20073;-75
2022/08/03 20:26:34;;;;;;;13.75;2.78;;;;;;;22.38;100.00;101060.59;4956474;28;20026;-75
2022/08/03 20:29:01;;;;;;;;;;;;;;;22.30;100.00;101059.03;4963794;28;20384;-74
2022/08/03 20:31:26;;;;;;;11.55;3.58;;;;;;;22.30;100.00;101056.31;4962154;28;20715;-74
2022/08/03 20:33:52;;;;;;;7.17;2.67;;;;;;;22.14;100.00;101043.34;4947644;28;20088;-74
2022/08/03 20:36:17;;;;;;;10.47;2.53;;;;;;;22.11;100.00;101058.25;4959811;28;20034;-75
2022/08/03 20:38:43;;;;;;;5.38;2.22;;;;;;;22.11;100.00;101057.44;4938531;28;20463;-74
2022/08/03 20:41:09;;;;;;;10.07;2.58;;;;;;;22.04;100.00;101051.25;4956166;28;20027;-75
2022/08/03 20:43:34;;;;;;;8.07;2.60;;;;;;;22.01;100.00;101058.00;4958012;28;20110;-75
2022/08/03 20:46:00;;;;;;;6.88;2.90;;;;;;;21.99;100.00;101053.84;4999199;28;20038;-75
2022/08/03 20:48:26;;;;;;;4.93;2.65;;;;;;;22.01;100.00;101057.13;4962093;28;20035;-74
2022/08/03 20:50:54;;;;;;;8.00;2.38;;;;;;;21.97;100.00;101061.41;4959403;28;20030;-75
2022/08/03 20:53:20;;;;;;;8.27;2.72;;;;;;;21.91;100.00;101072.13;4955686;28;20039;-74
2022/08/03 20:55:45;;;;;;;6.82;2.90;;;;;;;21.76;100.00;101079.84;4957233;28;20027;-75
2022/08/03 20:58:12;;;;;;;7.90;2.30;;;;;;;21.75;100.00;101088.22;4958135;28;20752;-75
2022/08/03 21:00:39;;;;;;;7.43;2.55;;;;;;;21.72;100.00;101078.63;4953222;28;20459;-75
2022/08/03 21:03:05;;;;;;;10.93;2.55;;;;;;;21.67;100.00;101067.63;4953962;28;20133;-75
2022/08/03 21:05:36;;;;;;;9.05;2.85;;;;;;;21.61;100.00;101073.97;4965333;28;20122;-75
2022/08/03 21:08:05;;;;;;;9.35;2.50;;;;;;;21.59;100.00;101070.69;4957229;28;20039;-76
2022/08/03 21:10:32;;;;;;;5.80;2.40;;;;;;;21.57;100.00;101076.31;4946227;28;20039;-74
2022/08/03 21:13:07;;;;;;;7.30;3.00;;;;;;;21.57;100.00;101078.22;4978144;28;20046;-76
2022/08/03 21:15:34;;;;;;;8.52;3.20;;;;;;;21.52;100.00;101069.91;4963438;28;20483;-75
2022/08/03 21:18:04;;;;;;;8.18;2.15;;;;;;;21.46;100.00;101072.47;4964694;28;20390;-75
2022/08/03 21:20:31;;;;;;;7.90;2.53;;;;;;;21.40;100.00;101083.41;4958653;28;20042;-75
2022/08/03 21:22:58;;;;;;;6.13;2.70;;;;;;;21.35;100.00;101086.75;4963467;28;20129;-74
2022/08/03 21:25:29;;;;;;;5.05;2.47;;;;;;;21.31;100.00;101091.00;4962105;28;20043;-75
2022/08/03 21:27:55;;;;;;;4.43;2.63;;;;;;;21.26;100.00;101088.97;4961872;28;20548;-75
2022/08/03 21:30:22;;;;;;;7.18;2.25;;;;;;;21.16;100.00;101083.22;4958858;28;20026;-77
2022/08/03 21:32:51;;;;;;;5.38;2.28;;;;;;;21.05;100.00;101078.53;4964216;28;20043;-76
2022/08/03 21:35:17;;;;;;;5.22;2.80;;;;;;;21.00;100.00;101090.06;4965305;28;20031;-74
2022/08/03 21:37:44;;;;;;;8.50;2.95;;;;;;;20.94;100.00;101088.22;4963494;28;20572;-76
2022/08/03 21:40:12;;;;;;;10.20;2.40;;;;;;;20.93;100.00;101086.59;5007144;28;20068;-75
2022/08/03 21:42:39;;;;;;;7.75;2.72;;;;;;;20.77;100.00;101068.16;4962308;28;20058;-75
2022/08/03 21:45:10;;;;;;;4.75;2.50;;;;;;;20.73;100.00;101077.78;4964112;28;20495;-74
2022/08/03 21:47:38;;;;;;;9.30;3.30;;;;;;;20.70;100.00;101079.06;4958055;28;20377;-74
2022/08/03 21:50:10;;;;;;;7.28;3.28;;;;;;;20.64;100.00;101080.75;4962491;28;20056;-74
2022/08/03 21:52:55;;;;;;;11.10;3.72;;;;;;;20.65;100.00;101078.91;4970882;28;20031;-75
2022/08/03 21:55:25;;;;;;;9.50;3.60;;;;;;;20.68;100.00;101077.63;4961574;28;20046;-75
2022/08/03 21:57:52;;;;;;;10.10;2.75;;;;;;;20.69;100.00;101073.84;4962983;28;20031;-76
2022/08/03 22:00:20;;;;;;;8.57;3.88;;;;;;;20.62;100.00;101072.00;4962465;28;20085;-76
2022/08/03 22:02:55;;;;;;;8.63;4.03;;;;;;;20.62;100.00;101077.44;4963988;28;20056;-75
2022/08/03 22:05:21;;;;;;;8.20;3.15;;;;;;;20.62;100.00;101082.03;4956779;28;20055;-75
2022/08/03 22:07:46;;;;;;;8.38;3.40;;;;;;;20.56;100.00;101077.50;4956717;28;20959;-75
2022/08/03 22:10:13;;;;;;;8.73;3.33;;;;;;;20.54;100.00;101087.72;4963512;28;20134;-75
2022/08/03 22:12:39;;;;;;;9.48;4.03;;;;;;;20.46;100.00;101086.06;4962825;28;20106;-74
2022/08/03 22:15:09;;;;;;;8.70;3.38;;;;;;;20.43;100.00;101100.09;4957037;28;20031;-74
2022/08/03 22:17:36;;;;;;;5.95;3.05;;;;;;;20.42;100.00;101095.72;4958186;28;20068;-76
2022/08/03 22:20:04;;;;;;;5.85;2.88;;;;;;;20.39;100.00;101088.00;4963337;28;20030;-74
2022/08/03 22:22:34;;;;;;;7.03;2.83;;;;;;;20.35;100.00;101087.63;4952669;28;20487;-74
2022/08/03 22:25:11;;;;;;;5.53;3.00;;;;;;;20.32;100.00;101095.34;4949137;28;20480;-76
2022/08/03 22:27:39;;;;;;;7.57;2.47;;;;;;;20.31;100.00;101097.25;4965775;28;20403;-74
2022/08/03 22:30:11;;;;;;;5.72;2.80;;;;;;;20.23;100.00;101097.53;4963297;28;20031;-74
2022/08/03 22:32:38;;;;;;;8.52;2.45;;;;;;;20.16;100.00;101092.13;4962293;28;20034;-73
2022/08/03 22:35:06;;;;;;;4.93;2.78;;;;;;;20.13;100.00;101095.25;4962383;28;20027;-74
2022/08/03 22:37:32;;;;;;;6.32;2.92;;;;;;;20.11;100.00;101091.97;4964052;28;20027;-74
2022/08/03 22:40:01;;;;;;;7.95;3.47;;;;;;;20.04;100.00;101096.56;4961982;28;20460;-76
2022/08/03 22:42:28;;;;;;;5.63;3.28;;;;;;;19.99;100.00;101097.22;4954499;28;20045;-74
2022/08/03 22:44:54;;;;;;;9.52;3.67;;;;;;;19.99;100.00;101093.66;4989838;28;20027;-75
2022/08/03 22:47:21;;;;;;;10.63;3.97;;;;;;;19.99;100.00;101099.09;4961930;28;20484;-76
2022/08/03 22:49:50;;;;;;;7.75;3.90;;;;;;;19.96;100.00;101100.34;4961807;28;20074;-74
2022/08/03 22:52:17;;;;;;;11.05;4.13;;;;;;;19.89;100.00;101102.28;4960628;28;20035;-74
2022/08/03 22:54:42;;;;;;;7.40;3.28;;;;;;;19.86;100.00;101099.16;4962319;28;20475;-75
2022/08/03 22:57:08;;;;;;;9.68;3.63;;;;;;;19.79;100.00;101089.19;4961858;28;20038;-74
2022/08/03 22:59:39;;;;;;;8.37;4.20;;;;;;;19.79;100.00;101096.50;4958791;28;20055;-74
2022/08/03 23:02:13;;;;;;;6.60;3.80;;;;;;;19.74;100.00;101101.72;4965450;28;20030;-75
2022/08/03 23:04:40;;;;;;;5.53;3.20;;;;;;;19.65;100.00;101101.09;4962095;28;20035;-74
2022/08/03 23:07:09;;;;;;;;;;;;;;;19.66;100.00;101100.03;4956808;28;20134;-74
2022/08/03 23:09:36;;;;;;;7.30;3.47;;;;;;;19.64;100.00;101090.47;4959284;28;20284;-76
2022/08/03 23:12:02;;;;;;;6.68;4.15;;;;;;;19.60;100.00;101093.59;4966390;28;20549;-76
2022/08/03 23:14:30;;;;;;;10.07;5.47;;;;;;;19.57;100.00;101096.75;4965225;28;20070;-74
2022/08/03 23:17:02;;;;;;;7.63;4.22;;;;;;;19.47;100.00;101090.09;4965700;28;20026;-74
2022/08/03 23:19:28;;;;;;;10.63;4.53;;;;;;;19.44;100.00;101090.53;4964560;28;20479;-74
2022/08/03 23:21:56;;;;;;;7.43;3.50;;;;;;;19.44;100.00;101090.53;4959426;28;20031;-74
2022/08/03 23:24:22;;;;;;;8.75;4.72;;;;;;;19.43;100.00;101089.69;4965011;28;20053;-74
2022/08/03 23:26:49;;;;;;;6.93;4.93;;;;;;;19.43;100.00;101078.03;4965301;28;20027;-74
2022/08/03 23:29:15;;;;;;;11.20;3.70;;;;;;;19.40;100.00;101085.53;4963105;28;20071;-75
2022/08/03 23:31:42;;;;;;;;;;;;;;;19.40;100.00;101085.53;4965209;28;20030;-76
2022/08/03 23:36:56;;;;;;;10.10;4.82;;;;;;;19.38;100.00;101078.66;4962734;28;20062;-75
2022/08/03 23:39:24;;;;;;;12.73;5.90;;;;;;;19.35;100.00;101079.94;4964560;28;20428;-74
2022/08/03 23:41:51;;;;;;;8.15;5.55;;;;;;;19.34;100.00;101075.56;4964100;28;20057;-76
2022/08/03 23:44:18;;;;;;;9.90;5.53;;;;;;;19.29;100.00;101083.50;4964800;28;20502;-76
2022/08/03 23:46:44;;;;;;;13.10;4.60;;;;;;;19.27;100.00;101087.44;4964549;28;20039;-75
2022/08/03 23:49:09;;;;;;;;;;;;;;;19.24;100.00;101086.00;4966157;28;20076;-74
2022/08/03 23:51:46;;;;;;;14.20;4.95;;;;;;;19.19;100.00;101083.09;4960401;28;19918;-74
2022/08/03 23:54:47;;;;;;;7.68;4.65;;;;;;;19.21;100.00;101078.31;4951196;28;20391;-74
2022/08/03 23:57:33;;;;;;;4.88;3.88;;;;;;;19.17;100.00;101077.91;4976667;28;20217;-73
